JBU2009 KPBI-KLAX
Flight info
| Callsign | JBU2009 |
|---|---|
| Flight time | N/A |
| Altitude | 34000 |
| Route | TBIRD7 SMELZ Q116 JAWJA CABLO DEFUN SHYRE MHZ JRHED TIKYS HYDES ODOYU PNH FTI TANER KD36Q JASSE Q90 DNERO ANJLL4 |
| Aircraft | A321/M-SDE3FGHIRWY/LB1 |
Departure
| Time | N/A |
|---|---|
| Airport | Palm Beach International Airport (KPBI) |
Arrival
| Time | 2026-04-23 04:03 |
|---|---|
| Airport | Los Angeles International Airport (KLAX) |
| Time | Latitude | Longitude | Altitude | Speed | Heading |
|---|---|---|---|---|---|
| 2026-04-23 03:18 | 35.34487 | -114.01088 | 34035 ft | 374 kts | 251° |
| 2026-04-23 03:18 | 35.33476 | -114.04035 | 34016 ft | 374 kts | 251° |
| 2026-04-23 03:18 | 35.31477 | -114.09858 | 34030 ft | 374 kts | 250° |
| 2026-04-23 03:19 | 35.29455 | -114.15730 | 34021 ft | 374 kts | 250° |
| 2026-04-23 03:19 | 35.27433 | -114.21605 | 34019 ft | 375 kts | 251° |
| 2026-04-23 03:20 | 35.25420 | -114.27447 | 34019 ft | 375 kts | 250° |
| 2026-04-23 03:20 | 35.23403 | -114.33288 | 34004 ft | 375 kts | 250° |
| 2026-04-23 03:21 | 35.21361 | -114.39184 | 33993 ft | 375 kts | 250° |
| 2026-04-23 03:21 | 35.19335 | -114.45023 | 33968 ft | 376 kts | 251° |
| 2026-04-23 03:22 | 35.17298 | -114.50889 | 33958 ft | 376 kts | 250° |
| 2026-04-23 03:22 | 35.15257 | -114.56767 | 33968 ft | 376 kts | 250° |
| 2026-04-23 03:23 | 35.13203 | -114.62644 | 33978 ft | 377 kts | 250° |
| 2026-04-23 03:23 | 35.11163 | -114.68507 | 33990 ft | 376 kts | 250° |
| 2026-04-23 03:24 | 35.09121 | -114.74390 | 33998 ft | 376 kts | 250° |
| 2026-04-23 03:24 | 35.07087 | -114.80229 | 33990 ft | 375 kts | 250° |
| 2026-04-23 03:25 | 35.05044 | -114.86092 | 33988 ft | 376 kts | 250° |
| 2026-04-23 03:25 | 35.02886 | -114.91850 | 33983 ft | 378 kts | 246° |
| 2026-04-23 03:26 | 35.00429 | -114.97543 | 33985 ft | 379 kts | 246° |
| 2026-04-23 03:26 | 34.97980 | -115.03217 | 33989 ft | 379 kts | 246° |
| 2026-04-23 03:27 | 34.95535 | -115.08868 | 33978 ft | 378 kts | 246° |
| 2026-04-23 03:27 | 34.93089 | -115.14503 | 33983 ft | 377 kts | 246° |
| 2026-04-23 03:28 | 34.90626 | -115.20149 | 33977 ft | 378 kts | 246° |
| 2026-04-23 03:28 | 34.88171 | -115.25784 | 33983 ft | 377 kts | 246° |
| 2026-04-23 03:29 | 34.85770 | -115.31304 | 33987 ft | 377 kts | 246° |
| 2026-04-23 03:29 | 34.83304 | -115.36948 | 33992 ft | 376 kts | 246° |
| 2026-04-23 03:30 | 34.80856 | -115.42528 | 33983 ft | 377 kts | 246° |
| 2026-04-23 03:30 | 34.78523 | -115.48225 | 33985 ft | 374 kts | 250° |
| 2026-04-23 03:31 | 34.76406 | -115.53979 | 33982 ft | 374 kts | 249° |
| 2026-04-23 03:31 | 34.74276 | -115.59737 | 33990 ft | 374 kts | 250° |
| 2026-04-23 03:32 | 34.72156 | -115.65494 | 33995 ft | 373 kts | 249° |
| 2026-04-23 03:32 | 34.70028 | -115.71254 | 33986 ft | 373 kts | 249° |
| 2026-04-23 03:33 | 34.67901 | -115.77011 | 33991 ft | 374 kts | 250° |
| 2026-04-23 03:33 | 34.65785 | -115.82730 | 33993 ft | 374 kts | 250° |
| 2026-04-23 03:34 | 34.63652 | -115.88470 | 33992 ft | 374 kts | 250° |
| 2026-04-23 03:34 | 34.61526 | -115.94217 | 33982 ft | 373 kts | 250° |
| 2026-04-23 03:35 | 34.59414 | -115.99951 | 33974 ft | 372 kts | 250° |
| 2026-04-23 03:35 | 34.57301 | -116.05664 | 33980 ft | 372 kts | 250° |
| 2026-04-23 03:36 | 34.55190 | -116.11374 | 33987 ft | 373 kts | 250° |
| 2026-04-23 03:36 | 34.53079 | -116.17087 | 33995 ft | 373 kts | 250° |
| 2026-04-23 03:37 | 34.50953 | -116.22800 | 34005 ft | 372 kts | 250° |
| 2026-04-23 03:37 | 34.48841 | -116.28503 | 34039 ft | 371 kts | 249° |
| 2026-04-23 03:38 | 34.46702 | -116.34226 | 34032 ft | 371 kts | 250° |
| 2026-04-23 03:38 | 34.44591 | -116.39887 | 34040 ft | 372 kts | 251° |
| 2026-04-23 03:39 | 34.42477 | -116.45567 | 34050 ft | 371 kts | 249° |
| 2026-04-23 03:39 | 34.40225 | -116.51189 | 34032 ft | 372 kts | 249° |
| 2026-04-23 03:40 | 34.37921 | -116.56808 | 34058 ft | 371 kts | 248° |
| 2026-04-23 03:40 | 34.35641 | -116.62369 | 34057 ft | 372 kts | 248° |
| 2026-04-23 03:41 | 34.33318 | -116.67976 | 33451 ft | 372 kts | 248° |
| 2026-04-23 03:41 | 34.32187 | -116.70777 | 32494 ft | 379 kts | 248° |
| 2026-04-23 03:41 | 34.31033 | -116.73659 | 31344 ft | 388 kts | 248° |
| 2026-04-23 03:42 | 34.29856 | -116.76596 | 30627 ft | 386 kts | 248° |
| 2026-04-23 03:42 | 34.28907 | -116.78965 | 30152 ft | 383 kts | 248° |
| 2026-04-23 03:42 | 34.27784 | -116.81757 | 29335 ft | 381 kts | 248° |
| 2026-04-23 03:42 | 34.26624 | -116.84639 | 28927 ft | 376 kts | 248° |
| 2026-04-23 03:43 | 34.25491 | -116.87443 | 28661 ft | 368 kts | 247° |
| 2026-04-23 03:43 | 34.24383 | -116.90188 | 28126 ft | 359 kts | 247° |
| 2026-04-23 03:43 | 34.23298 | -116.92868 | 27486 ft | 351 kts | 247° |
| 2026-04-23 03:43 | 34.22240 | -116.95489 | 26641 ft | 350 kts | 248° |
| 2026-04-23 03:44 | 34.21269 | -116.98151 | 25863 ft | 345 kts | 251° |
| 2026-04-23 03:44 | 34.20451 | -117.00799 | 25106 ft | 338 kts | 253° |
| 2026-04-23 03:44 | 34.19722 | -117.03462 | 24225 ft | 333 kts | 254° |
| 2026-04-23 03:44 | 34.19001 | -117.06107 | 23341 ft | 330 kts | 254° |
| 2026-04-23 03:45 | 34.18290 | -117.08721 | 22486 ft | 327 kts | 255° |
| 2026-04-23 03:45 | 34.17588 | -117.11307 | 21734 ft | 324 kts | 255° |
| 2026-04-23 03:45 | 34.16898 | -117.13850 | 21024 ft | 321 kts | 255° |
| 2026-04-23 03:45 | 34.16211 | -117.16378 | 20320 ft | 317 kts | 255° |
| 2026-04-23 03:46 | 34.15519 | -117.18895 | 19613 ft | 314 kts | 255° |
| 2026-04-23 03:46 | 34.14831 | -117.21398 | 18829 ft | 311 kts | 255° |
| 2026-04-23 03:46 | 34.14154 | -117.23859 | 18028 ft | 309 kts | 255° |
| 2026-04-23 03:46 | 34.13488 | -117.26284 | 17232 ft | 306 kts | 255° |
| 2026-04-23 03:47 | 34.12815 | -117.28721 | 16447 ft | 305 kts | 254° |
| 2026-04-23 03:47 | 34.12145 | -117.31145 | 15697 ft | 303 kts | 254° |
| 2026-04-23 03:47 | 34.11486 | -117.33527 | 14973 ft | 301 kts | 254° |
| 2026-04-23 03:47 | 34.10831 | -117.35895 | 14320 ft | 298 kts | 254° |
| 2026-04-23 03:48 | 34.10194 | -117.38251 | 13817 ft | 290 kts | 256° |
| 2026-04-23 03:48 | 34.09626 | -117.40531 | 13407 ft | 283 kts | 256° |
| 2026-04-23 03:48 | 34.09069 | -117.42793 | 13049 ft | 280 kts | 256° |
| 2026-04-23 03:48 | 34.08511 | -117.45055 | 12710 ft | 278 kts | 256° |
| 2026-04-23 03:49 | 34.07955 | -117.47266 | 12384 ft | 276 kts | 256° |
| 2026-04-23 03:49 | 34.07404 | -117.49448 | 12249 ft | 269 kts | 256° |
| 2026-04-23 03:49 | 34.06864 | -117.51588 | 12055 ft | 269 kts | 256° |
| 2026-04-23 03:49 | 34.06300 | -117.53807 | 11796 ft | 269 kts | 256° |
| 2026-04-23 03:50 | 34.05742 | -117.55984 | 11522 ft | 267 kts | 256° |
| 2026-04-23 03:50 | 34.05198 | -117.58109 | 11258 ft | 267 kts | 256° |
| 2026-04-23 03:50 | 34.04645 | -117.60267 | 10983 ft | 267 kts | 256° |
| 2026-04-23 03:50 | 34.04102 | -117.62386 | 10711 ft | 267 kts | 256° |
| 2026-04-23 03:51 | 34.03552 | -117.64529 | 10408 ft | 267 kts | 256° |
| 2026-04-23 03:51 | 34.03007 | -117.66653 | 10208 ft | 260 kts | 255° |
| 2026-04-23 03:51 | 34.02502 | -117.68711 | 10104 ft | 253 kts | 257° |
| 2026-04-23 03:51 | 34.02133 | -117.70759 | 9960 ft | 251 kts | 262° |
| 2026-04-23 03:52 | 34.01908 | -117.72707 | 9623 ft | 253 kts | 265° |
| 2026-04-23 03:52 | 34.01709 | -117.74815 | 9287 ft | 255 kts | 264° |
| 2026-04-23 03:52 | 34.01514 | -117.76907 | 8978 ft | 256 kts | 264° |
| 2026-04-23 03:52 | 34.01303 | -117.79009 | 8744 ft | 252 kts | 264° |
| 2026-04-23 03:53 | 34.01103 | -117.81100 | 8474 ft | 249 kts | 264° |
| 2026-04-23 03:53 | 34.00904 | -117.83167 | 8191 ft | 246 kts | 263° |
| 2026-04-23 03:53 | 34.00700 | -117.85190 | 7905 ft | 244 kts | 264° |
| 2026-04-23 03:53 | 34.00498 | -117.87221 | 7618 ft | 242 kts | 264° |
| 2026-04-23 03:54 | 34.00312 | -117.89232 | 7339 ft | 240 kts | 265° |
| 2026-04-23 03:54 | 34.00178 | -117.91236 | 7063 ft | 238 kts | 266° |
| 2026-04-23 03:54 | 34.00045 | -117.93224 | 6810 ft | 236 kts | 264° |
| 2026-04-23 03:54 | 33.99892 | -117.95178 | 6574 ft | 234 kts | 264° |
| 2026-04-23 03:55 | 33.99722 | -117.97103 | 6346 ft | 231 kts | 263° |
| 2026-04-23 03:55 | 33.99538 | -117.99013 | 6105 ft | 228 kts | 263° |
| 2026-04-23 03:55 | 33.99344 | -118.00899 | 5820 ft | 228 kts | 263° |
| 2026-04-23 03:55 | 33.99144 | -118.02797 | 5513 ft | 229 kts | 263° |
| 2026-04-23 03:56 | 33.98937 | -118.04706 | 5229 ft | 229 kts | 263° |
| 2026-04-23 03:56 | 33.98732 | -118.06630 | 4946 ft | 229 kts | 263° |
| 2026-04-23 03:56 | 33.98529 | -118.08512 | 4668 ft | 227 kts | 263° |
| 2026-04-23 03:56 | 33.98324 | -118.10390 | 4395 ft | 226 kts | 263° |
| 2026-04-23 03:57 | 33.98126 | -118.12215 | 4128 ft | 212 kts | 263° |
| 2026-04-23 03:57 | 33.97941 | -118.13929 | 4072 ft | 197 kts | 263° |
| 2026-04-23 03:57 | 33.97776 | -118.15466 | 4062 ft | 173 kts | 263° |
| 2026-04-23 03:57 | 33.97627 | -118.16870 | 3847 ft | 171 kts | 263° |
| 2026-04-23 03:58 | 33.97476 | -118.18302 | 3634 ft | 173 kts | 264° |
| 2026-04-23 03:58 | 33.97326 | -118.19733 | 3426 ft | 173 kts | 264° |
| 2026-04-23 03:58 | 33.97176 | -118.21170 | 3214 ft | 173 kts | 264° |
| 2026-04-23 03:58 | 33.97026 | -118.22607 | 3000 ft | 172 kts | 264° |
| 2026-04-23 03:59 | 33.96878 | -118.24032 | 2784 ft | 171 kts | 264° |
| 2026-04-23 03:59 | 33.96729 | -118.25459 | 2593 ft | 171 kts | 264° |
| 2026-04-23 03:59 | 33.96582 | -118.26875 | 2349 ft | 171 kts | 264° |
| 2026-04-23 03:59 | 33.96435 | -118.28297 | 2102 ft | 170 kts | 264° |
| 2026-04-23 04:00 | 33.96292 | -118.29690 | 1866 ft | 169 kts | 264° |
| 2026-04-23 04:00 | 33.96147 | -118.31093 | 1631 ft | 165 kts | 264° |
| 2026-04-23 04:00 | 33.96009 | -118.32418 | 1399 ft | 152 kts | 263° |
| 2026-04-23 04:00 | 33.95884 | -118.33605 | 1194 ft | 137 kts | 264° |
| 2026-04-23 04:01 | 33.95771 | -118.34713 | 1013 ft | 129 kts | 264° |
| 2026-04-23 04:01 | 33.95662 | -118.35775 | 862 ft | 127 kts | 264° |
| 2026-04-23 04:01 | 33.95554 | -118.36830 | 707 ft | 125 kts | 264° |
| 2026-04-23 04:01 | 33.95451 | -118.37855 | 538 ft | 123 kts | 263° |
| 2026-04-23 04:02 | 33.95349 | -118.38869 | 383 ft | 121 kts | 263° |
| 2026-04-23 04:02 | 33.95246 | -118.39873 | 215 ft | 119 kts | 263° |
| 2026-04-23 04:02 | 33.95143 | -118.40849 | 130 ft | 111 kts | 263° |
| 2026-04-23 04:02 | 33.95074 | -118.41547 | 126 ft | 56 kts | 262° |
| 2026-04-23 04:03 | 33.95026 | -118.41966 | 126 ft | 38 kts | 261° |
| 2026-04-23 04:03 | 33.94933 | -118.42211 | 125 ft | 19 kts | 225° |
| 2026-04-23 04:03 | 33.94845 | -118.42287 | 123 ft | 15 kts | 188° |
| 2026-04-23 04:03 | 33.94733 | -118.42278 | 122 ft | 16 kts | 171° |
| 2026-04-23 04:04 | 33.94683 | -118.42210 | 122 ft | 12 kts | 96° |
| 2026-04-23 04:04 | 33.94708 | -118.42055 | 123 ft | 21 kts | 80° |
| 2026-04-23 04:04 | 33.94717 | -118.41877 | 125 ft | 20 kts | 84° |
| 2026-04-23 04:04 | 33.94741 | -118.41719 | 126 ft | 18 kts | 81° |
| 2026-04-23 04:05 | 33.94754 | -118.41565 | 127 ft | 18 kts | 85° |
| 2026-04-23 04:05 | 33.94752 | -118.41418 | 128 ft | 17 kts | 124° |
| 2026-04-23 04:05 | 33.94619 | -118.41373 | 127 ft | 24 kts | 173° |
| 2026-04-23 04:05 | 33.94424 | -118.41351 | 126 ft | 26 kts | 175° |
| 2026-04-23 04:06 | 33.94256 | -118.41326 | 128 ft | 20 kts | 173° |
| 2026-04-23 04:06 | 33.94179 | -118.41338 | 127 ft | 7 kts | 288° |
| 2026-04-23 04:06 | 33.94182 | -118.41402 | 127 ft | 8 kts | 268° |
| 2026-04-23 04:06 | 33.94181 | -118.41423 | 127 ft | 0 kts | 264° |